Time;durP1;ratioP1;P1;durP2;ratioP2;P2;SDS_P1;SDS_P2;PMS_P1;PMS_P2;Temp;Humidity;BMP_temperature;BMP_pressure;BME280_temperature;BME280_humidity;BME280_pressure;Samples;Min_cycle;Max_cycle;Signal;HPM_P1;HPM_P2
2022/03/12 00:00:43;;;;;;;12.70;6.23;;;;;;;-0.36;65.21;102360.75;5034091;28;20191;-73
2022/03/12 00:03:10;;;;;;;9.53;6.63;;;;;;;-0.40;65.93;102366.00;5033881;28;20558;-73
2022/03/12 00:05:38;;;;;;;10.77;7.00;;;;;;;-0.45;65.93;102361.81;5034053;28;20270;-73
2022/03/12 00:08:05;;;;;;;11.03;6.47;;;;;;;-0.54;66.55;102352.06;5033892;28;20267;-74
2022/03/12 00:10:33;;;;;;;13.40;6.73;;;;;;;-0.52;66.59;102364.94;5033898;28;20176;-73
2022/03/12 00:13:02;;;;;;;12.80;7.27;;;;;;;-0.59;67.32;102363.03;5036327;28;20204;-75
2022/03/12 00:15:33;;;;;;;12.20;7.07;;;;;;;-0.63;67.05;102359.75;5035825;28;20263;-75
2022/03/12 00:17:59;;;;;;;10.00;6.33;;;;;;;-0.68;67.51;102356.50;5035786;28;20314;-76
2022/03/12 00:20:26;;;;;;;14.10;7.97;;;;;;;-0.64;67.66;102358.84;5035978;28;20652;-74
2022/03/12 00:22:52;;;;;;;15.03;7.57;;;;;;;-0.67;67.23;102362.47;5035711;28;20656;-76
2022/03/12 00:25:22;;;;;;;15.23;7.97;;;;;;;-0.65;67.13;102364.56;5033598;28;20202;-75
2022/03/12 00:27:50;;;;;;;15.47;7.83;;;;;;;-0.70;66.74;102357.84;5033330;28;20623;-73
2022/03/12 00:30:19;;;;;;;19.07;7.10;;;;;;;-0.65;66.92;102366.16;5033242;28;20171;-75
2022/03/12 00:32:48;;;;;;;12.80;8.33;;;;;;;-0.65;66.67;102359.53;5033494;28;20180;-74
2022/03/12 00:35:15;;;;;;;13.43;7.83;;;;;;;-0.67;66.43;102357.41;5033117;28;20207;-74
2022/03/12 00:37:40;;;;;;;15.37;7.83;;;;;;;-0.64;65.93;102365.47;5033054;28;20651;-73
2022/03/12 00:40:06;;;;;;;14.27;7.97;;;;;;;-0.66;66.22;102365.19;5033159;28;20172;-75
2022/03/12 00:42:32;;;;;;;15.53;7.50;;;;;;;-0.67;65.67;102362.47;5033425;28;20183;-75
2022/03/12 00:44:59;;;;;;;15.77;7.90;;;;;;;-0.71;66.13;102356.00;5032983;28;20232;-73
2022/03/12 00:47:26;;;;;;;12.80;7.27;;;;;;;-0.78;66.41;102348.13;5031680;28;20172;-74
2022/03/12 00:49:52;;;;;;;14.43;7.37;;;;;;;-0.75;65.64;102359.63;5033337;28;20262;-73
2022/03/12 00:52:18;;;;;;;15.53;7.20;;;;;;;-0.88;66.13;102348.22;5033101;28;20271;-74
2022/03/12 00:54:44;;;;;;;19.53;8.73;;;;;;;-0.88;65.83;102350.75;5032750;28;20172;-75
2022/03/12 00:57:11;;;;;;;13.37;7.60;;;;;;;-0.98;65.57;102323.16;5032684;28;20607;-74
2022/03/12 00:59:40;;;;;;;11.10;7.07;;;;;;;-0.83;65.86;102349.00;5032865;28;20176;-75
2022/03/12 01:02:08;;;;;;;14.63;7.37;;;;;;;-0.83;65.95;102349.91;5032687;28;20538;-73
2022/03/12 01:04:34;;;;;;;13.53;7.47;;;;;;;-0.88;65.83;102338.16;5032924;28;20572;-73
2022/03/12 01:06:59;;;;;;;18.37;8.90;;;;;;;-0.91;65.38;102344.28;5032572;28;20682;-74
2022/03/12 01:09:25;;;;;;;20.43;10.20;;;;;;;-0.88;65.30;102339.75;5032771;28;20172;-75
2022/03/12 01:11:50;;;;;;;16.73;8.57;;;;;;;-0.90;65.22;102349.59;5032761;28;20219;-74
2022/03/12 01:14:16;;;;;;;14.03;7.73;;;;;;;-0.89;65.30;102348.00;5032522;28;20222;-75
2022/03/12 01:16:41;;;;;;;12.73;7.53;;;;;;;-1.00;65.06;102333.66;5032408;28;20176;-76
2022/03/12 01:19:08;;;;;;;16.77;8.10;;;;;;;-1.00;64.62;102328.63;5032305;28;20168;-73
2022/03/12 01:21:34;;;;;;;12.93;8.27;;;;;;;-1.20;64.81;102303.66;5032837;28;20258;-74
2022/03/12 01:23:59;;;;;;;16.43;8.83;;;;;;;-0.97;65.11;102349.25;5032537;28;20732;-74
2022/03/12 01:26:26;;;;;;;17.90;7.97;;;;;;;-0.99;64.93;102358.16;5032626;28;20196;-74
2022/03/12 01:28:51;;;;;;;16.70;8.50;;;;;;;-0.98;65.05;102354.97;5032874;28;20176;-73
2022/03/12 01:31:18;;;;;;;17.97;8.50;;;;;;;-1.02;64.74;102352.63;5032699;28;20180;-74
2022/03/12 01:33:44;;;;;;;19.37;8.47;;;;;;;-1.01;64.83;102357.88;5032582;28;20176;-74
2022/03/12 01:36:10;;;;;;;16.93;8.17;;;;;;;-1.00;64.64;102354.72;5032411;28;20182;-74
2022/03/12 01:38:48;;;;;;;17.70;8.50;;;;;;;-1.14;64.39;102330.50;5032226;28;20180;-74
2022/03/12 01:41:25;;;;;;;18.37;9.67;;;;;;;-1.05;64.78;102355.56;5031718;28;20262;-74
2022/03/12 01:43:53;;;;;;;20.30;8.80;;;;;;;-1.03;64.26;102356.75;5031923;28;20204;-74
2022/03/12 01:46:29;;;;;;;16.97;8.60;;;;;;;-1.05;64.63;102362.19;5030533;28;20235;-74
2022/03/12 01:48:59;;;;;;;16.97;9.23;;;;;;;-1.09;64.31;102362.34;5032312;28;20163;-74
2022/03/12 01:51:28;;;;;;;13.73;8.13;;;;;;;-1.23;64.05;102339.97;5031864;28;20188;-74
2022/03/12 01:53:54;;;;;;;12.73;8.33;;;;;;;-1.27;64.42;102338.56;5031727;28;20180;-74
2022/03/12 01:56:20;;;;;;;14.47;7.80;;;;;;;-1.19;64.10;102358.31;5031903;28;20237;-75
2022/03/12 01:58:50;;;;;;;18.50;9.83;;;;;;;-1.29;63.81;102349.03;5032090;28;20176;-75
2022/03/12 02:01:18;;;;;;;16.63;9.70;;;;;;;-1.40;63.60;102342.25;5031719;28;20171;-75
2022/03/12 02:03:45;;;;;;;23.70;9.10;;;;;;;-1.28;64.37;102369.38;5031731;28;20203;-75
2022/03/12 02:06:15;;;;;;;20.07;9.97;;;;;;;-1.29;64.48;102369.16;5031767;28;20180;-75
2022/03/12 02:08:41;;;;;;;17.57;10.00;;;;;;;-1.34;64.75;102364.94;5031382;28;20180;-74
2022/03/12 02:11:07;;;;;;;14.37;9.57;;;;;;;-1.31;64.77;102366.41;5031433;28;20674;-75
2022/03/12 02:13:34;;;;;;;18.30;10.23;;;;;;;-1.31;65.00;102373.00;5031675;28;20721;-75
2022/03/12 02:16:09;;;;;;;23.73;11.13;;;;;;;-1.31;65.44;102366.41;5031244;28;20697;-75
2022/03/12 02:18:37;;;;;;;20.47;10.50;;;;;;;-1.30;65.42;102363.22;5031300;28;20574;-74
2022/03/12 02:21:06;;;;;;;20.27;10.33;;;;;;;-1.31;66.65;102362.94;5031250;28;20171;-75
2022/03/12 02:23:45;;;;;;;17.43;9.60;;;;;;;-1.30;67.60;102370.75;5031217;28;20245;-75
2022/03/12 02:26:11;;;;;;;16.53;9.83;;;;;;;-1.33;68.45;102370.25;5031445;28;20202;-76
2022/03/12 02:28:36;;;;;;;19.60;10.40;;;;;;;-1.34;68.31;102363.38;5031013;28;20659;-74
2022/03/12 02:31:03;;;;;;;17.40;9.77;;;;;;;-1.35;68.88;102371.56;5031085;28;20175;-74
2022/03/12 02:33:29;;;;;;;18.73;8.50;;;;;;;-1.37;68.92;102366.97;5031073;28;20686;-75
2022/03/12 02:35:56;;;;;;;19.67;9.60;;;;;;;-1.45;69.08;102364.13;5031382;28;20174;-74
2022/03/12 02:38:23;;;;;;;15.13;8.10;;;;;;;-1.41;69.08;102370.56;5031491;28;20187;-74
2022/03/12 02:40:50;;;;;;;16.83;8.83;;;;;;;-1.42;69.36;102361.19;5031029;28;20218;-74
2022/03/12 02:43:25;;;;;;;14.80;8.93;;;;;;;-1.37;69.16;102367.91;5031327;28;20211;-75
2022/03/12 02:45:51;;;;;;;14.63;9.27;;;;;;;-1.47;68.97;102346.94;5030964;28;20223;-74
2022/03/12 02:48:18;;;;;;;15.67;8.63;;;;;;;-1.37;68.97;102375.44;5031284;28;20184;-75
2022/03/12 02:50:43;;;;;;;15.60;9.40;;;;;;;-1.41;69.67;102371.47;5031114;28;20733;-75
2022/03/12 02:53:09;;;;;;;18.07;10.60;;;;;;;-1.37;69.33;102377.00;5030256;28;20180;-74
2022/03/12 02:55:41;;;;;;;16.07;9.50;;;;;;;-1.36;69.33;102383.91;5031103;28;20172;-75
2022/03/12 02:58:09;;;;;;;15.73;9.57;;;;;;;-1.52;70.04;102370.41;5030774;28;20160;-75
2022/03/12 03:00:36;;;;;;;23.00;9.90;;;;;;;-1.43;69.82;102387.00;5031058;28;20180;-74
2022/03/12 03:03:05;;;;;;;17.73;9.50;;;;;;;-1.44;70.35;102390.19;5030569;28;20175;-76
2022/03/12 03:05:44;;;;;;;19.30;8.70;;;;;;;-1.37;70.15;102387.06;5029839;28;20598;-74
2022/03/12 03:08:12;;;;;;;18.77;9.80;;;;;;;-1.36;70.45;102394.88;5030761;28;20205;-73
2022/03/12 03:10:45;;;;;;;15.63;8.87;;;;;;;-1.55;69.93;102367.38;5031184;28;20268;-76
2022/03/12 03:13:17;;;;;;;16.00;8.67;;;;;;;-1.43;69.98;102389.53;5031023;28;20328;-74
2022/03/12 03:15:51;;;;;;;13.80;7.93;;;;;;;-1.52;70.08;102388.94;5030862;28;20195;-74
2022/03/12 03:18:20;;;;;;;16.57;8.80;;;;;;;-1.70;71.10;102381.75;5030892;28;20543;-74
2022/03/12 03:20:46;;;;;;;14.70;8.93;;;;;;;-1.69;71.43;102381.09;5030963;28;20223;-75
2022/03/12 03:23:12;;;;;;;17.83;10.10;;;;;;;-1.63;71.66;102391.25;5031044;28;20211;-75
2022/03/12 03:25:39;;;;;;;21.40;10.80;;;;;;;-1.71;71.37;102387.47;5030420;28;20200;-75
2022/03/12 03:28:05;;;;;;;18.77;10.10;;;;;;;-1.75;71.33;102384.19;5030624;28;20729;-74
2022/03/12 03:30:36;;;;;;;22.23;11.50;;;;;;;-1.89;71.66;102372.75;5030486;28;20216;-75
2022/03/12 03:33:07;;;;;;;21.17;11.20;;;;;;;-1.85;72.43;102401.81;5030723;28;20169;-76
2022/03/12 03:35:33;;;;;;;18.53;10.97;;;;;;;-1.80;72.70;102396.00;5030698;28;20180;-75
2022/03/12 03:37:59;;;;;;;21.53;11.60;;;;;;;-1.86;72.68;102392.47;5030384;28;20175;-75
2022/03/12 03:40:27;;;;;;;21.40;11.80;;;;;;;-1.90;72.41;102387.56;5030586;28;20183;-76
2022/03/12 03:42:53;;;;;;;21.27;12.63;;;;;;;-1.86;72.89;102402.50;5030380;28;20329;-76
2022/03/12 03:45:23;;;;;;;17.97;11.17;;;;;;;-1.94;72.41;102385.22;5030270;28;20318;-76
2022/03/12 03:47:51;;;;;;;21.57;11.90;;;;;;;-1.82;72.61;102401.41;5030568;28;20198;-75
2022/03/12 03:50:18;;;;;;;28.47;12.87;;;;;;;-1.81;72.89;102405.78;5030464;28;20671;-76
2022/03/12 03:52:44;;;;;;;24.80;13.77;;;;;;;-1.80;72.57;102405.13;5030333;28;20176;-75
2022/03/12 03:55:10;;;;;;;24.23;12.57;;;;;;;-1.84;72.40;102402.75;5030321;28;20176;-75
2022/03/12 03:57:36;;;;;;;21.57;11.77;;;;;;;-1.82;72.69;102407.38;5030294;28;20176;-73
2022/03/12 04:00:01;;;;;;;23.43;12.93;;;;;;;-1.86;72.91;102412.56;5030569;28;20176;-75
2022/03/12 04:02:27;;;;;;;26.47;12.03;;;;;;;-1.89;73.15;102412.97;5030193;28;20173;-75
2022/03/12 04:04:53;;;;;;;18.83;10.33;;;;;;;-1.89;73.24;102420.50;5033881;28;20235;-78
2022/03/12 04:07:18;;;;;;;16.20;9.80;;;;;;;-1.85;73.58;102421.94;5033776;28;20184;-74
2022/03/12 04:09:44;;;;;;;17.37;9.70;;;;;;;-1.81;74.14;102420.84;5032518;28;20195;-76
2022/03/12 04:12:10;;;;;;;15.33;10.13;;;;;;;-1.86;73.82;102417.59;5032583;28;20535;-75
2022/03/12 04:14:35;;;;;;;24.20;10.70;;;;;;;-1.96;73.97;102414.22;5033977;28;20179;-75
2022/03/12 04:17:01;;;;;;;17.43;11.03;;;;;;;-1.93;73.09;102405.59;5033794;28;20194;-75
2022/03/12 04:19:29;;;;;;;18.20;10.90;;;;;;;-1.90;72.25;102412.69;5034075;28;20202;-74
2022/03/12 04:21:56;;;;;;;19.20;10.13;;;;;;;-1.99;72.11;102414.63;5034182;28;20180;-74
2022/03/12 04:24:24;;;;;;;26.33;10.93;;;;;;;-1.94;72.23;102423.81;5033887;28;20631;-75
2022/03/12 04:26:50;;;;;;;18.23;10.87;;;;;;;-2.00;72.82;102426.91;5034515;28;20709;-73
2022/03/12 04:29:18;;;;;;;21.77;12.20;;;;;;;-2.07;73.58;102421.53;5036345;28;20168;-74
2022/03/12 04:31:46;;;;;;;27.00;13.07;;;;;;;-2.12;73.57;102424.19;5035865;28;20184;-74
2022/03/12 04:34:13;;;;;;;23.30;12.33;;;;;;;-2.14;73.91;102435.56;5033940;28;20186;-75
2022/03/12 04:36:41;;;;;;;27.57;12.77;;;;;;;-2.22;73.89;102427.38;5038244;28;20180;-73
2022/03/12 04:39:09;;;;;;;31.60;14.13;;;;;;;-2.32;73.98;102417.38;5039832;28;20172;-72
2022/03/12 04:41:36;;;;;;;25.13;13.40;;;;;;;-2.31;74.59;102429.25;5046853;28;20203;-73
2022/03/12 04:44:06;;;;;;;24.87;14.20;;;;;;;-2.27;74.81;102434.16;5040044;28;20204;-74
2022/03/12 04:46:32;;;;;;;29.50;14.63;;;;;;;-2.31;74.17;102444.31;5049838;28;20174;-73
2022/03/12 04:48:58;;;;;;;25.40;13.37;;;;;;;-2.30;74.55;102440.25;5056377;28;20186;-73
2022/03/12 04:51:24;;;;;;;24.53;12.63;;;;;;;-2.34;73.98;102441.28;5052743;28;20180;-73
2022/03/12 04:53:49;;;;;;;23.57;13.13;;;;;;;-2.37;74.44;102438.28;5050815;28;20190;-71
2022/03/12 04:56:15;;;;;;;19.20;11.57;;;;;;;-2.35;74.24;102441.97;5051947;28;20175;-72
2022/03/12 04:58:41;;;;;;;23.43;12.47;;;;;;;-2.35;74.10;102440.38;5051853;28;20183;-74
2022/03/12 05:01:07;;;;;;;59.90;24.37;;;;;;;-2.23;73.94;102441.53;5046902;28;20176;-74
2022/03/12 05:03:33;;;;;;;38.10;19.17;;;;;;;-2.29;73.73;102448.03;5045237;28;20196;-74
2022/03/12 05:06:02;;;;;;;25.60;12.67;;;;;;;-2.38;73.88;102424.78;5047255;28;20176;-74
2022/03/12 05:08:28;;;;;;;43.60;21.97;;;;;;;-2.29;73.66;102442.09;5046355;28;20184;-74
2022/03/12 05:10:56;;;;;;;34.70;17.03;;;;;;;-2.30;73.61;102447.78;5034242;28;20238;-74
2022/03/12 05:13:23;;;;;;;27.13;14.67;;;;;;;-2.28;73.43;102443.94;5033555;28;20372;-75
2022/03/12 05:15:53;;;;;;;20.93;11.53;;;;;;;-2.28;73.39;102453.97;5032120;28;20758;-76
2022/03/12 05:18:20;;;;;;;18.60;11.33;;;;;;;-2.40;73.92;102445.28;5031506;28;20235;-76
2022/03/12 05:20:46;;;;;;;29.43;12.57;;;;;;;-2.42;73.89;102436.59;5032865;28;20679;-75
2022/03/12 05:23:12;;;;;;;20.47;12.20;;;;;;;-2.14;73.85;102455.66;5032969;28;20625;-76
2022/03/12 05:25:42;;;;;;;22.00;11.97;;;;;;;-2.07;74.16;102456.69;5033019;28;20200;-76
2022/03/12 05:28:17;;;;;;;18.97;10.30;;;;;;;-1.98;73.43;102453.22;5032798;28;20634;-76
2022/03/12 05:30:46;;;;;;;16.90;10.13;;;;;;;-2.00;74.03;102450.44;5032456;28;20176;-75
2022/03/12 05:33:13;;;;;;;20.03;10.87;;;;;;;-1.94;73.44;102448.03;5032279;28;20267;-76
2022/03/12 05:35:40;;;;;;;19.23;10.83;;;;;;;-1.91;73.86;102441.91;5032153;28;20211;-76
2022/03/12 05:38:06;;;;;;;19.20;11.77;;;;;;;-1.71;73.42;102457.84;5032336;28;20183;-77
2022/03/12 05:40:37;;;;;;;16.50;10.50;;;;;;;-1.54;71.94;102463.16;5032319;28;20179;-76
2022/03/12 05:43:03;;;;;;;16.40;9.67;;;;;;;-1.42;70.95;102464.28;5030806;28;20176;-76
2022/03/12 05:45:28;;;;;;;19.23;10.87;;;;;;;-1.28;70.71;102454.91;5030540;28;20250;-76
2022/03/12 05:47:54;;;;;;;19.57;9.83;;;;;;;-1.10;69.69;102462.06;5030655;28;20180;-77
2022/03/12 05:50:21;;;;;;;18.70;10.30;;;;;;;-1.03;68.97;102453.91;5030853;28;20254;-75
2022/03/12 05:52:49;;;;;;;17.77;8.77;;;;;;;-1.02;68.91;102463.34;5032240;28;20609;-76
2022/03/12 05:55:18;;;;;;;15.57;9.03;;;;;;;-1.05;68.48;102460.31;5032258;28;20191;-76
2022/03/12 05:57:44;;;;;;;15.83;9.83;;;;;;;-0.97;68.25;102459.97;5035864;28;20186;-77
2022/03/12 06:00:11;;;;;;;19.97;10.10;;;;;;;-0.91;66.90;102476.06;5037348;28;20571;-78
2022/03/12 06:02:50;;;;;;;17.67;9.27;;;;;;;-0.98;66.89;102475.75;5039109;28;20172;-76
2022/03/12 06:05:17;;;;;;;17.27;9.83;;;;;;;-1.08;67.12;102464.84;5036829;28;20262;-76
2022/03/12 06:07:45;;;;;;;19.73;10.97;;;;;;;-1.19;67.54;102453.91;5032513;28;20195;-74
2022/03/12 06:10:17;;;;;;;19.73;9.83;;;;;;;-1.02;67.50;102476.84;5031537;28;20179;-74
2022/03/12 06:12:43;;;;;;;22.17;11.30;;;;;;;-1.07;66.98;102484.28;5031472;28;20175;-75
2022/03/12 06:15:17;;;;;;;21.83;12.13;;;;;;;-1.07;67.39;102481.78;5030024;28;20330;-76
2022/03/12 06:17:47;;;;;;;22.53;12.27;;;;;;;-1.17;67.23;102484.38;5031678;28;20173;-74
2022/03/12 06:20:14;;;;;;;21.53;12.27;;;;;;;-1.25;68.48;102488.09;5031337;28;20706;-75
2022/03/12 06:22:40;;;;;;;23.93;11.60;;;;;;;-1.38;69.00;102496.81;5031279;28;20656;-75
2022/03/12 06:25:08;;;;;;;19.27;12.43;;;;;;;-1.33;69.54;102490.03;5031071;28;20203;-73
2022/03/12 06:27:34;;;;;;;20.87;11.20;;;;;;;-1.46;69.00;102492.13;5030520;28;20176;-76
2022/03/12 06:30:05;;;;;;;23.97;11.40;;;;;;;-1.35;69.83;102501.44;5031170;28;20573;-75
2022/03/12 06:32:31;;;;;;;27.73;15.53;;;;;;;-1.14;68.86;102483.97;5031394;28;20172;-75
2022/03/12 06:34:57;;;;;;;22.47;12.73;;;;;;;-0.91;67.98;102490.25;5031048;28;20678;-74
2022/03/12 06:37:23;;;;;;;20.87;10.20;;;;;;;-0.86;68.05;102500.41;5031086;28;20168;-76
2022/03/12 06:39:49;;;;;;;19.20;10.77;;;;;;;-0.75;67.58;102500.59;5031309;28;20202;-74
2022/03/12 06:42:15;;;;;;;17.00;9.87;;;;;;;-0.80;68.10;102493.88;5031008;28;20648;-75
2022/03/12 06:44:43;;;;;;;22.80;11.27;;;;;;;-1.01;68.57;102505.44;5030903;28;20228;-76
2022/03/12 06:47:09;;;;;;;20.20;10.83;;;;;;;-0.97;68.90;102511.22;5030973;28;20226;-75
2022/03/12 06:49:38;;;;;;;18.67;10.53;;;;;;;-1.23;69.54;102518.56;5031192;28;20176;-76
2022/03/12 06:52:06;;;;;;;70.10;33.90;;;;;;;-1.07;70.05;102505.34;5030995;28;20164;-74
2022/03/12 06:54:32;;;;;;;26.70;13.10;;;;;;;-1.08;70.23;102515.16;5029843;28;20192;-75
2022/03/12 06:56:57;;;;;;;20.67;10.67;;;;;;;-0.99;70.29;102526.75;5031239;28;20164;-75
2022/03/12 06:59:23;;;;;;;21.53;10.80;;;;;;;-0.98;70.64;102524.47;5031103;28;20194;-78
2022/03/12 07:01:49;;;;;;;16.53;9.13;;;;;;;-0.87;69.54;102505.19;5031399;28;20187;-74
2022/03/12 07:04:14;;;;;;;19.07;10.03;;;;;;;-0.63;69.81;102515.84;5031240;28;20212;-76
2022/03/12 07:06:40;;;;;;;24.77;11.43;;;;;;;-0.74;69.28;102499.91;5031108;28;20660;-75
2022/03/12 07:09:05;;;;;;;34.13;16.60;;;;;;;-0.49;68.98;102519.97;5031181;28;20378;-76
2022/03/12 07:11:32;;;;;;;22.33;12.43;;;;;;;-0.56;69.43;102528.75;5031130;28;20180;-78
2022/03/12 07:13:58;;;;;;;20.63;10.63;;;;;;;-0.32;68.74;102536.91;5030457;28;20184;-78
2022/03/12 07:16:24;;;;;;;24.90;12.30;;;;;;;-0.24;68.75;102529.91;5031544;28;20203;-78
2022/03/12 07:18:50;;;;;;;23.17;11.93;;;;;;;-0.39;69.24;102534.97;5031417;28;20216;-81
2022/03/12 07:21:15;;;;;;;18.97;11.23;;;;;;;-0.34;69.81;102533.22;5031105;28;20203;-78
2022/03/12 07:23:41;;;;;;;26.13;12.70;;;;;;;-0.16;68.69;102531.16;5031022;28;20199;-80
2022/03/12 07:26:08;;;;;;;19.87;10.83;;;;;;;0.15;67.81;102537.03;5031051;28;20199;-79
2022/03/12 07:28:35;;;;;;;17.50;10.37;;;;;;;0.08;66.62;102541.78;5031090;28;20196;-78
2022/03/12 07:31:00;;;;;;;18.87;9.83;;;;;;;0.00;67.42;102529.56;5030639;28;20230;-76
2022/03/12 07:33:29;;;;;;;17.00;9.67;;;;;;;0.27;66.92;102534.66;5030937;28;20176;-78
2022/03/12 07:35:56;;;;;;;19.60;10.93;;;;;;;0.51;66.33;102526.00;5030745;28;20187;-77
2022/03/12 07:38:21;;;;;;;17.73;9.97;;;;;;;0.61;65.55;102536.84;5031971;28;20210;-76
2022/03/12 07:40:50;;;;;;;16.20;10.33;;;;;;;0.66;65.83;102530.03;5034746;28;20212;-80
2022/03/12 07:43:16;;;;;;;20.30;11.27;;;;;;;0.89;65.39;102529.56;5034806;28;20237;-75
2022/03/12 07:45:42;;;;;;;19.83;9.63;;;;;;;0.71;65.85;102508.97;5034027;28;20307;-77
2022/03/12 07:48:07;;;;;;;19.63;9.50;;;;;;;0.84;65.97;102538.00;5034434;28;20180;-79
2022/03/12 07:50:34;;;;;;;17.33;9.97;;;;;;;0.69;66.59;102523.88;5032944;28;20691;-78
2022/03/12 07:52:59;;;;;;;16.80;9.70;;;;;;;0.68;66.60;102537.16;5034175;28;20212;-75
2022/03/12 07:55:25;;;;;;;22.63;10.53;;;;;;;0.90;65.63;102518.81;5034085;28;20223;-75
2022/03/12 07:57:51;;;;;;;25.03;10.90;;;;;;;0.83;65.78;102538.69;5034045;28;20184;-75
2022/03/12 08:00:18;;;;;;;17.03;9.63;;;;;;;0.94;65.66;102531.91;5034276;28;20176;-76
2022/03/12 08:02:45;;;;;;;16.07;9.70;;;;;;;1.04;66.11;102538.63;5033832;28;20648;-81
2022/03/12 08:05:12;;;;;;;16.13;9.53;;;;;;;1.22;66.15;102532.13;5033752;28;20546;-78
2022/03/12 08:07:39;;;;;;;17.87;10.63;;;;;;;1.25;65.06;102532.59;5034249;28;20184;-79
2022/03/12 08:10:06;;;;;;;20.50;11.23;;;;;;;1.46;64.47;102537.56;5034005;28;20255;-81
2022/03/12 08:12:32;;;;;;;17.27;9.57;;;;;;;1.51;64.17;102534.16;5032773;28;20577;-80
2022/03/12 08:15:05;;;;;;;20.23;10.70;;;;;;;1.77;63.84;102526.47;5033918;28;20653;-78
2022/03/12 08:17:45;;;;;;;18.20;10.50;;;;;;;1.97;62.99;102528.66;5033648;28;20184;-77
2022/03/12 08:20:11;;;;;;;17.93;10.40;;;;;;;2.25;61.65;102538.88;5033955;28;20183;-76
2022/03/12 08:22:39;;;;;;;19.70;10.10;;;;;;;2.14;61.25;102522.03;5033876;28;20630;-78
2022/03/12 08:25:07;;;;;;;21.50;10.87;;;;;;;2.20;61.45;102533.09;5033954;28;20290;-77
2022/03/12 08:27:35;;;;;;;16.63;10.13;;;;;;;1.96;60.83;102542.91;5033868;28;20652;-80
2022/03/12 08:30:00;;;;;;;17.63;10.57;;;;;;;1.97;61.04;102522.00;5034128;28;20171;-80
2022/03/12 08:32:26;;;;;;;18.97;10.53;;;;;;;2.04;61.74;102491.91;5033915;28;20176;-75
2022/03/12 08:34:51;;;;;;;20.13;10.93;;;;;;;2.58;61.18;102535.50;5033666;28;20184;-75
2022/03/12 08:37:17;;;;;;;25.20;12.30;;;;;;;2.79;60.36;102532.78;5033526;28;20163;-74
2022/03/12 08:39:43;;;;;;;19.97;10.77;;;;;;;2.93;58.63;102532.34;5033253;28;20178;-74
2022/03/12 08:42:08;;;;;;;21.47;10.70;;;;;;;2.94;58.86;102535.09;5033124;28;20307;-75
2022/03/12 08:44:35;;;;;;;19.80;10.93;;;;;;;2.91;57.97;102504.25;5032731;28;20234;-75
2022/03/12 08:47:00;;;;;;;16.00;11.37;;;;;;;3.26;59.54;102520.34;5032969;28;20247;-74
2022/03/12 08:49:26;;;;;;;19.13;11.40;;;;;;;3.60;57.96;102529.72;5030811;28;20168;-77
2022/03/12 08:51:51;;;;;;;25.73;14.10;;;;;;;3.60;57.28;102526.25;5032855;28;20354;-74
2022/03/12 08:54:17;;;;;;;35.33;16.60;;;;;;;3.44;57.94;102521.47;5032898;28;20271;-74
2022/03/12 08:56:44;;;;;;;41.13;17.10;;;;;;;3.40;58.17;102529.31;5033091;28;20180;-77
2022/03/12 08:59:09;;;;;;;19.60;12.03;;;;;;;3.23;57.52;102530.94;5031696;28;20183;-75
2022/03/12 09:01:36;;;;;;;21.23;10.90;;;;;;;3.05;59.14;102524.03;5032752;28;20582;-73
2022/03/12 09:04:02;;;;;;;18.10;11.17;;;;;;;3.20;58.82;102518.72;5032672;28;20231;-74
2022/03/12 09:06:29;;;;;;;23.23;12.83;;;;;;;3.19;59.07;102523.56;5031545;28;20210;-74
2022/03/12 09:08:55;;;;;;;19.43;10.60;;;;;;;3.28;59.12;102522.41;5032979;28;20253;-73
2022/03/12 09:11:21;;;;;;;18.10;10.30;;;;;;;3.32;58.62;102509.50;5033189;28;20171;-74
2022/03/12 09:13:47;;;;;;;15.90;10.13;;;;;;;3.54;58.42;102506.00;5032296;28;20172;-73
2022/03/12 09:16:14;;;;;;;17.43;10.13;;;;;;;3.81;59.13;102503.16;5030948;28;20176;-74
2022/03/12 09:18:42;;;;;;;20.40;11.13;;;;;;;3.97;58.68;102508.84;5030784;28;20176;-73
2022/03/12 09:21:08;;;;;;;27.07;14.33;;;;;;;4.14;55.76;102518.25;5031077;28;20187;-75
2022/03/12 09:23:34;;;;;;;28.73;15.10;;;;;;;4.32;55.69;102504.75;5030692;28;20199;-73
2022/03/12 09:25:59;;;;;;;21.60;10.87;;;;;;;4.34;54.85;102503.34;5030557;28;20694;-74
2022/03/12 09:28:25;;;;;;;21.03;10.63;;;;;;;4.40;53.94;102500.78;5030981;28;20179;-76
2022/03/12 09:30:51;;;;;;;29.57;13.67;;;;;;;4.42;53.93;102496.84;5032481;28;20184;-73
2022/03/12 09:33:22;;;;;;;21.37;11.83;;;;;;;4.56;53.20;102487.06;5032358;28;20171;-74
2022/03/12 09:35:49;;;;;;;41.00;17.93;;;;;;;4.76;53.75;102491.53;5032314;28;20263;-75
2022/03/12 09:38:15;;;;;;;20.53;11.67;;;;;;;4.97;51.98;102498.75;5032402;28;20173;-73
2022/03/12 09:40:42;;;;;;;15.67;10.27;;;;;;;5.08;52.67;102491.94;5032135;28;20663;-75
2022/03/12 09:43:08;;;;;;;20.07;10.70;;;;;;;5.14;52.16;102478.25;5032183;28;20184;-74
2022/03/12 09:45:34;;;;;;;14.90;9.83;;;;;;;5.23;50.66;102495.75;5032023;28;20219;-75
2022/03/12 09:48:00;;;;;;;13.03;8.03;;;;;;;5.27;48.62;102485.31;5032211;28;20183;-75
2022/03/12 09:50:25;;;;;;;12.17;7.67;;;;;;;5.37;48.83;102491.69;5031848;28;20638;-74
2022/03/12 09:52:51;;;;;;;34.00;19.45;;;;;;;5.26;47.01;102474.91;5032061;28;20201;-75
2022/03/12 09:55:19;;;;;;;13.13;8.20;;;;;;;5.35;46.78;102482.91;5032100;28;20206;-75
2022/03/12 09:57:45;;;;;;;17.17;10.93;;;;;;;5.28;47.00;102473.50;5031765;28;20175;-75
2022/03/12 10:00:12;;;;;;;12.63;8.27;;;;;;;5.33;46.75;102485.25;5032090;28;20629;-75
2022/03/12 10:02:38;;;;;;;16.40;7.83;;;;;;;5.37;46.39;102487.50;5031560;28;20650;-75
2022/03/12 10:05:04;;;;;;;12.23;7.43;;;;;;;5.37;46.40;102469.72;5031599;28;20231;-74
2022/03/12 10:07:29;;;;;;;10.00;7.40;;;;;;;5.44;46.02;102486.75;5031608;28;20259;-75
2022/03/12 10:09:55;;;;;;;15.63;8.03;;;;;;;5.37;46.41;102484.97;5031793;28;20203;-74
2022/03/12 10:12:20;;;;;;;12.97;7.53;;;;;;;5.10;46.13;102447.31;5031899;28;20180;-75
2022/03/12 10:14:48;;;;;;;11.87;7.43;;;;;;;5.15;46.53;102459.78;5031710;28;20175;-73
2022/03/12 10:17:14;;;;;;;11.20;6.53;;;;;;;5.19;46.54;102475.66;5031606;28;20180;-74
2022/03/12 10:19:40;;;;;;;14.57;7.43;;;;;;;5.29;46.55;102467.72;5031638;28;20179;-73
2022/03/12 10:22:08;;;;;;;11.20;7.38;;;;;;;5.48;46.77;102473.75;5031837;28;20198;-74
2022/03/12 10:24:35;;;;;;;15.50;7.77;;;;;;;5.73;47.60;102473.94;5031125;28;20235;-74
2022/03/12 10:27:02;;;;;;;12.00;7.57;;;;;;;5.94;47.40;102457.28;5030094;28;20183;-74
2022/03/12 10:29:28;;;;;;;13.27;7.75;;;;;;;6.06;45.01;102452.94;5031661;28;20197;-74
2022/03/12 10:31:54;;;;;;;13.98;8.07;;;;;;;6.15;44.95;102454.22;5030022;28;20176;-75
2022/03/12 10:34:24;;;;;;;12.47;7.43;;;;;;;6.16;45.01;102458.59;5031400;28;20709;-73
2022/03/12 10:36:57;;;;;;;25.13;12.07;;;;;;;6.11;43.79;102468.16;5031574;28;20175;-73
2022/03/12 10:39:37;;;;;;;16.05;8.77;;;;;;;5.99;43.90;102452.09;5031217;28;20160;-75
2022/03/12 10:42:07;;;;;;;10.35;6.72;;;;;;;6.14;44.15;102458.41;5031145;28;20168;-74
2022/03/12 10:44:36;;;;;;;9.90;6.45;;;;;;;6.38;44.71;102454.78;5030840;28;20227;-74
2022/03/12 10:47:02;;;;;;;13.73;7.88;;;;;;;6.46;44.65;102446.56;5031186;28;20183;-73
2022/03/12 10:49:28;;;;;;;11.30;7.05;;;;;;;6.74;45.17;102447.75;5031198;28;20180;-73
2022/03/12 10:51:57;;;;;;;13.57;7.60;;;;;;;6.77;44.16;102436.34;5031504;28;20172;-75
2022/03/12 10:54:23;;;;;;;12.98;6.32;;;;;;;6.76;42.93;102443.75;5031317;28;20172;-74
2022/03/12 10:56:51;;;;;;;11.77;6.55;;;;;;;6.76;43.47;102433.56;5030963;28;20251;-73
2022/03/12 10:59:23;;;;;;;9.48;6.80;;;;;;;6.76;43.15;102433.56;5029629;28;20183;-72
2022/03/12 11:01:52;;;;;;;12.82;7.85;;;;;;;6.84;43.16;102438.06;5029632;28;20199;-72
2022/03/12 11:04:23;;;;;;;14.38;8.50;;;;;;;7.01;42.70;102425.97;5029615;28;20208;-74
2022/03/12 11:06:51;;;;;;;18.25;7.20;;;;;;;7.14;41.98;102416.66;5030885;28;20726;-74
2022/03/12 11:09:30;;;;;;;13.38;7.80;;;;;;;7.26;42.30;102421.53;5030815;28;20167;-73
2022/03/12 11:12:00;;;;;;;9.10;6.80;;;;;;;7.12;41.58;102400.25;5030753;28;20211;-74
2022/03/12 11:14:29;;;;;;;14.55;8.40;;;;;;;7.22;41.56;102415.13;5034169;28;20180;-73
2022/03/12 11:16:55;;;;;;;12.25;7.80;;;;;;;7.16;42.54;102416.84;5035018;28;20176;-74